Rolling Meadows, Illinois
Current Conditions -  °F | °C
As of 12:52 AM on Friday 31 Oct 2014 (Local Time) from KPWK Reporting Station
Overcast Overcast  
Wind Chill:   Ceiling: 4500
Heat Index:   Visibility: 10mi
Dew Point:   Wind: 8mph
Humidity: 63%   Direction: 300°WNW
Pressure: 30.04"   Gusts: NA
Location:  42.08°N, 88.03°W
Report Text: KPWK 310552Z AUTO 30007KT 10SM BKN045 BKN070 OVC080 09/02 A3004 RMK AO2 SLP174 T00890022 10100 20089 401170006 58008
Loading
Personal Weather Stations






























Interactive Weather Map
Tropical Storm Tracking
New forecast layout! Learn more

10-Day Weather Forecast

Advertisements
Track Severe Weather on mobile